sensor_id;sensor_type;location;lat;lon;timestamp;P1;durP1;ratioP1;P2;durP2;ratioP2
30533;SDS011;73248;52.398;9.814;2024-03-23T00:55:58;25.95;;;10.80;;
30533;SDS011;73248;52.398;9.814;2024-03-23T00:58:24;24.58;;;9.45;;
30533;SDS011;73248;52.398;9.814;2024-03-23T01:00:50;32.63;;;10.68;;
30533;SDS011;73248;52.398;9.814;2024-03-23T01:03:15;23.90;;;8.75;;
30533;SDS011;73248;52.398;9.814;2024-03-23T01:05:41;32.78;;;9.35;;
30533;SDS011;73248;52.398;9.814;2024-03-23T01:08:06;34.83;;;9.55;;
30533;SDS011;73248;52.398;9.814;2024-03-23T01:10:32;20.48;;;8.95;;
30533;SDS011;73248;52.398;9.814;2024-03-23T01:12:58;34.22;;;10.43;;
30533;SDS011;73248;52.398;9.814;2024-03-23T01:15:23;31.05;;;9.70;;
30533;SDS011;73248;52.398;9.814;2024-03-23T01:17:49;33.50;;;9.02;;
30533;SDS011;73248;52.398;9.814;2024-03-23T01:20:14;27.88;;;8.18;;
30533;SDS011;73248;52.398;9.814;2024-03-23T01:22:40;20.73;;;7.40;;
30533;SDS011;73248;52.398;9.814;2024-03-23T01:25:06;20.73;;;7.40;;
30533;SDS011;73248;52.398;9.814;2024-03-23T01:27:32;27.25;;;7.57;;
30533;SDS011;73248;52.398;9.814;2024-03-23T01:29:59;16.65;;;6.10;;
30533;SDS011;73248;52.398;9.814;2024-03-23T01:32:25;21.55;;;6.40;;
30533;SDS011;73248;52.398;9.814;2024-03-23T01:34:50;17.33;;;5.88;;
30533;SDS011;73248;52.398;9.814;2024-03-23T01:37:16;22.48;;;5.90;;
30533;SDS011;73248;52.398;9.814;2024-03-23T01:39:41;22.27;;;5.15;;
30533;SDS011;73248;52.398;9.814;2024-03-23T01:42:07;17.20;;;5.30;;
30533;SDS011;73248;52.398;9.814;2024-03-23T01:44:33;13.32;;;5.38;;
30533;SDS011;73248;52.398;9.814;2024-03-23T01:46:58;14.18;;;5.05;;
30533;SDS011;73248;52.398;9.814;2024-03-23T01:49:24;23.33;;;5.38;;
30533;SDS011;73248;52.398;9.814;2024-03-23T01:51:49;17.85;;;4.90;;
30533;SDS011;73248;52.398;9.814;2024-03-23T01:54:15;21.95;;;4.93;;
30533;SDS011;73248;52.398;9.814;2024-03-23T01:56:41;17.35;;;4.80;;
30533;SDS011;73248;52.398;9.814;2024-03-23T01:59:07;18.52;;;5.00;;
30533;SDS011;73248;52.398;9.814;2024-03-23T02:01:32;15.32;;;4.72;;
30533;SDS011;73248;52.398;9.814;2024-03-23T02:04:01;18.77;;;4.78;;
30533;SDS011;73248;52.398;9.814;2024-03-23T02:06:26;15.95;;;5.25;;
30533;SDS011;73248;52.398;9.814;2024-03-23T02:08:53;18.23;;;4.63;;
30533;SDS011;73248;52.398;9.814;2024-03-23T02:11:19;13.88;;;4.90;;
30533;SDS011;73248;52.398;9.814;2024-03-23T02:13:45;13.77;;;3.92;;
30533;SDS011;73248;52.398;9.814;2024-03-23T02:16:10;13.30;;;3.88;;
30533;SDS011;73248;52.398;9.814;2024-03-23T02:18:36;18.75;;;4.72;;
30533;SDS011;73248;52.398;9.814;2024-03-23T02:21:02;16.02;;;4.55;;
30533;SDS011;73248;52.398;9.814;2024-03-23T02:23:28;14.15;;;4.13;;
30533;SDS011;73248;52.398;9.814;2024-03-23T02:25:54;20.48;;;5.28;;
30533;SDS011;73248;52.398;9.814;2024-03-23T02:28:20;24.27;;;4.60;;
30533;SDS011;73248;52.398;9.814;2024-03-23T02:30:47;16.20;;;4.63;;
30533;SDS011;73248;52.398;9.814;2024-03-23T02:33:16;16.70;;;4.40;;
30533;SDS011;73248;52.398;9.814;2024-03-23T02:35:41;15.43;;;5.00;;
30533;SDS011;73248;52.398;9.814;2024-03-23T02:38:08;21.00;;;5.35;;
30533;SDS011;73248;52.398;9.814;2024-03-23T02:40:34;19.50;;;5.20;;
30533;SDS011;73248;52.398;9.814;2024-03-23T02:43:00;23.38;;;5.15;;
30533;SDS011;73248;52.398;9.814;2024-03-23T02:45:25;17.23;;;5.40;;
30533;SDS011;73248;52.398;9.814;2024-03-23T02:47:51;14.15;;;4.72;;
30533;SDS011;73248;52.398;9.814;2024-03-23T02:50:19;18.95;;;5.53;;
30533;SDS011;73248;52.398;9.814;2024-03-23T02:52:45;22.13;;;5.22;;
30533;SDS011;73248;52.398;9.814;2024-03-23T02:55:11;20.88;;;5.30;;
30533;SDS011;73248;52.398;9.814;2024-03-23T02:57:37;22.20;;;5.30;;
30533;SDS011;73248;52.398;9.814;2024-03-23T03:00:03;20.23;;;5.30;;
30533;SDS011;73248;52.398;9.814;2024-03-23T03:02:30;34.83;;;5.70;;
30533;SDS011;73248;52.398;9.814;2024-03-23T03:04:55;16.42;;;5.28;;
30533;SDS011;73248;52.398;9.814;2024-03-23T03:07:21;21.48;;;5.90;;
30533;SDS011;73248;52.398;9.814;2024-03-23T03:09:46;23.45;;;5.00;;
30533;SDS011;73248;52.398;9.814;2024-03-23T03:12:12;24.83;;;5.60;;
30533;SDS011;73248;52.398;9.814;2024-03-23T03:14:37;24.00;;;5.78;;
30533;SDS011;73248;52.398;9.814;2024-03-23T03:17:03;15.63;;;4.65;;
30533;SDS011;73248;52.398;9.814;2024-03-23T03:19:29;16.17;;;4.85;;
30533;SDS011;73248;52.398;9.814;2024-03-23T03:21:55;11.13;;;4.10;;
30533;SDS011;73248;52.398;9.814;2024-03-23T03:24:21;15.70;;;5.10;;
30533;SDS011;73248;52.398;9.814;2024-03-23T03:26:46;22.85;;;5.45;;
30533;SDS011;73248;52.398;9.814;2024-03-23T03:29:12;24.67;;;4.97;;
30533;SDS011;73248;52.398;9.814;2024-03-23T03:31:38;17.77;;;5.25;;
30533;SDS011;73248;52.398;9.814;2024-03-23T03:34:04;21.23;;;5.57;;
30533;SDS011;73248;52.398;9.814;2024-03-23T03:36:30;19.23;;;4.72;;
30533;SDS011;73248;52.398;9.814;2024-03-23T03:38:55;18.40;;;4.88;;
30533;SDS011;73248;52.398;9.814;2024-03-23T03:41:21;19.23;;;5.30;;
30533;SDS011;73248;52.398;9.814;2024-03-23T03:43:47;23.52;;;5.22;;
30533;SDS011;73248;52.398;9.814;2024-03-23T03:46:12;26.52;;;5.22;;
30533;SDS011;73248;52.398;9.814;2024-03-23T03:48:38;16.88;;;4.90;;
30533;SDS011;73248;52.398;9.814;2024-03-23T03:51:03;25.02;;;5.55;;
30533;SDS011;73248;52.398;9.814;2024-03-23T03:53:29;18.70;;;4.53;;
30533;SDS011;73248;52.398;9.814;2024-03-23T03:55:55;15.18;;;5.78;;
30533;SDS011;73248;52.398;9.814;2024-03-23T03:58:21;18.33;;;4.45;;
30533;SDS011;73248;52.398;9.814;2024-03-23T04:00:47;15.52;;;4.72;;
30533;SDS011;73248;52.398;9.814;2024-03-23T04:03:13;21.35;;;4.18;;
30533;SDS011;73248;52.398;9.814;2024-03-23T04:05:38;28.05;;;6.65;;
30533;SDS011;73248;52.398;9.814;2024-03-23T04:08:04;21.17;;;5.43;;
30533;SDS011;73248;52.398;9.814;2024-03-23T04:10:31;21.75;;;5.25;;
30533;SDS011;73248;52.398;9.814;2024-03-23T04:12:56;14.38;;;4.72;;
30533;SDS011;73248;52.398;9.814;2024-03-23T04:15:22;16.20;;;4.70;;
30533;SDS011;73248;52.398;9.814;2024-03-23T04:17:47;15.95;;;5.13;;
30533;SDS011;73248;52.398;9.814;2024-03-23T04:20:13;10.27;;;4.05;;
30533;SDS011;73248;52.398;9.814;2024-03-23T04:22:41;18.38;;;4.43;;
30533;SDS011;73248;52.398;9.814;2024-03-23T04:25:07;12.43;;;3.25;;
30533;SDS011;73248;52.398;9.814;2024-03-23T04:27:33;14.82;;;3.42;;
30533;SDS011;73248;52.398;9.814;2024-03-23T04:29:59;10.80;;;3.38;;
30533;SDS011;73248;52.398;9.814;2024-03-23T04:32:26;12.63;;;2.20;;
30533;SDS011;73248;52.398;9.814;2024-03-23T04:34:53;11.98;;;2.42;;
30533;SDS011;73248;52.398;9.814;2024-03-23T04:37:19;18.55;;;3.00;;
30533;SDS011;73248;52.398;9.814;2024-03-23T04:39:45;16.45;;;2.95;;
30533;SDS011;73248;52.398;9.814;2024-03-23T04:42:11;14.35;;;3.20;;
30533;SDS011;73248;52.398;9.814;2024-03-23T04:44:37;11.43;;;2.70;;
30533;SDS011;73248;52.398;9.814;2024-03-23T04:47:03;14.50;;;3.38;;
30533;SDS011;73248;52.398;9.814;2024-03-23T04:49:28;17.02;;;3.75;;
30533;SDS011;73248;52.398;9.814;2024-03-23T04:51:54;15.98;;;2.85;;
30533;SDS011;73248;52.398;9.814;2024-03-23T04:54:20;16.50;;;3.88;;
30533;SDS011;73248;52.398;9.814;2024-03-23T04:56:45;15.95;;;3.85;;
30533;SDS011;73248;52.398;9.814;2024-03-23T04:59:11;16.55;;;3.30;;
30533;SDS011;73248;52.398;9.814;2024-03-23T05:01:37;14.57;;;3.92;;
30533;SDS011;73248;52.398;9.814;2024-03-23T05:04:05;14.13;;;3.47;;
30533;SDS011;73248;52.398;9.814;2024-03-23T05:06:30;16.92;;;3.50;;
30533;SDS011;73248;52.398;9.814;2024-03-23T05:08:57;20.73;;;4.10;;
30533;SDS011;73248;52.398;9.814;2024-03-23T05:11:23;22.38;;;4.30;;
30533;SDS011;73248;52.398;9.814;2024-03-23T05:13:49;16.48;;;3.28;;
30533;SDS011;73248;52.398;9.814;2024-03-23T05:16:14;20.65;;;3.70;;
30533;SDS011;73248;52.398;9.814;2024-03-23T05:18:40;13.98;;;3.55;;
30533;SDS011;73248;52.398;9.814;2024-03-23T05:21:05;15.23;;;3.15;;
30533;SDS011;73248;52.398;9.814;2024-03-23T05:23:31;17.23;;;2.78;;
30533;SDS011;73248;52.398;9.814;2024-03-23T05:25:56;6.47;;;1.88;;
30533;SDS011;73248;52.398;9.814;2024-03-23T05:28:22;4.60;;;1.40;;
30533;SDS011;73248;52.398;9.814;2024-03-23T05:30:51;7.47;;;1.40;;
30533;SDS011;73248;52.398;9.814;2024-03-23T05:33:18;8.27;;;1.40;;
30533;SDS011;73248;52.398;9.814;2024-03-23T05:35:45;10.93;;;1.30;;
30533;SDS011;73248;52.398;9.814;2024-03-23T05:38:11;14.95;;;2.55;;
30533;SDS011;73248;52.398;9.814;2024-03-23T05:40:36;10.05;;;1.60;;
30533;SDS011;73248;52.398;9.814;2024-03-23T05:43:05;8.27;;;1.35;;
30533;SDS011;73248;52.398;9.814;2024-03-23T05:45:31;6.20;;;1.27;;
30533;SDS011;73248;52.398;9.814;2024-03-23T05:47:57;8.40;;;1.10;;
30533;SDS011;73248;52.398;9.814;2024-03-23T05:50:23;15.10;;;1.75;;
30533;SDS011;73248;52.398;9.814;2024-03-23T05:52:49;6.90;;;1.45;;
30533;SDS011;73248;52.398;9.814;2024-03-23T05:55:14;10.48;;;1.80;;
30533;SDS011;73248;52.398;9.814;2024-03-23T05:57:40;9.20;;;1.45;;
30533;SDS011;73248;52.398;9.814;2024-03-23T06:00:06;15.45;;;2.35;;
30533;SDS011;73248;52.398;9.814;2024-03-23T06:02:41;10.60;;;1.55;;
30533;SDS011;73248;52.398;9.814;2024-03-23T06:05:13;8.82;;;1.63;;
30533;SDS011;73248;52.398;9.814;2024-03-23T06:07:39;7.68;;;1.13;;
30533;SDS011;73248;52.398;9.814;2024-03-23T06:10:04;5.85;;;1.52;;
30533;SDS011;73248;52.398;9.814;2024-03-23T06:12:31;7.68;;;1.33;;
30533;SDS011;73248;52.398;9.814;2024-03-23T06:14:57;8.32;;;1.67;;
30533;SDS011;73248;52.398;9.814;2024-03-23T06:17:22;6.88;;;2.08;;
30533;SDS011;73248;52.398;9.814;2024-03-23T06:19:48;10.05;;;1.88;;
30533;SDS011;73248;52.398;9.814;2024-03-23T06:22:14;10.20;;;1.45;;
30533;SDS011;73248;52.398;9.814;2024-03-23T06:24:40;13.02;;;1.48;;
30533;SDS011;73248;52.398;9.814;2024-03-23T06:27:05;15.65;;;1.98;;
30533;SDS011;73248;52.398;9.814;2024-03-23T06:29:31;5.63;;;1.77;;
30533;SDS011;73248;52.398;9.814;2024-03-23T06:31:57;9.43;;;1.58;;
30533;SDS011;73248;52.398;9.814;2024-03-23T06:34:23;8.98;;;1.73;;
30533;SDS011;73248;52.398;9.814;2024-03-23T06:36:48;12.38;;;2.30;;
30533;SDS011;73248;52.398;9.814;2024-03-23T06:39:14;11.77;;;1.95;;
30533;SDS011;73248;52.398;9.814;2024-03-23T06:41:45;16.08;;;2.83;;
30533;SDS011;73248;52.398;9.814;2024-03-23T06:44:17;10.55;;;2.65;;
30533;SDS011;73248;52.398;9.814;2024-03-23T06:46:43;14.30;;;2.90;;
30533;SDS011;73248;52.398;9.814;2024-03-23T06:49:09;15.57;;;2.55;;
30533;SDS011;73248;52.398;9.814;2024-03-23T06:51:35;10.20;;;2.35;;
30533;SDS011;73248;52.398;9.814;2024-03-23T06:54:01;13.38;;;3.10;;
30533;SDS011;73248;52.398;9.814;2024-03-23T06:58:54;19.77;;;3.83;;
30533;SDS011;73248;52.398;9.814;2024-03-23T07:01:19;18.48;;;3.47;;
30533;SDS011;73248;52.398;9.814;2024-03-23T07:03:45;18.33;;;3.70;;
30533;SDS011;73248;52.398;9.814;2024-03-23T07:06:10;18.38;;;3.42;;
30533;SDS011;73248;52.398;9.814;2024-03-23T07:08:36;19.05;;;4.60;;
30533;SDS011;73248;52.398;9.814;2024-03-23T07:11:02;18.08;;;3.88;;
30533;SDS011;73248;52.398;9.814;2024-03-23T07:13:27;26.45;;;6.53;;
30533;SDS011;73248;52.398;9.814;2024-03-23T07:15:53;25.13;;;5.50;;
30533;SDS011;73248;52.398;9.814;2024-03-23T07:18:22;29.17;;;5.38;;
30533;SDS011;73248;52.398;9.814;2024-03-23T07:20:57;35.38;;;5.65;;
30533;SDS011;73248;52.398;9.814;2024-03-23T07:23:23;22.67;;;5.45;;
30533;SDS011;73248;52.398;9.814;2024-03-23T07:25:56;25.40;;;6.22;;
30533;SDS011;73248;52.398;9.814;2024-03-23T07:28:22;25.17;;;6.07;;
30533;SDS011;73248;52.398;9.814;2024-03-23T07:30:47;18.15;;;5.72;;
30533;SDS011;73248;52.398;9.814;2024-03-23T07:33:13;32.75;;;6.50;;
30533;SDS011;73248;52.398;9.814;2024-03-23T07:35:38;20.00;;;5.70;;
30533;SDS011;73248;52.398;9.814;2024-03-23T07:38:04;20.15;;;5.60;;
30533;SDS011;73248;52.398;9.814;2024-03-23T07:40:30;27.42;;;6.45;;
30533;SDS011;73248;52.398;9.814;2024-03-23T07:42:56;26.58;;;6.32;;
30533;SDS011;73248;52.398;9.814;2024-03-23T07:45:21;23.85;;;5.97;;
30533;SDS011;73248;52.398;9.814;2024-03-23T07:47:47;28.58;;;6.68;;
30533;SDS011;73248;52.398;9.814;2024-03-23T07:50:13;26.77;;;6.50;;
30533;SDS011;73248;52.398;9.814;2024-03-23T07:52:38;30.67;;;7.00;;
30533;SDS011;73248;52.398;9.814;2024-03-23T07:55:04;31.23;;;6.82;;
30533;SDS011;73248;52.398;9.814;2024-03-23T07:57:30;27.00;;;6.60;;
30533;SDS011;73248;52.398;9.814;2024-03-23T07:59:56;24.10;;;6.85;;
30533;SDS011;73248;52.398;9.814;2024-03-23T08:02:21;33.08;;;7.70;;
30533;SDS011;73248;52.398;9.814;2024-03-23T08:04:47;39.05;;;7.25;;
30533;SDS011;73248;52.398;9.814;2024-03-23T08:07:13;37.20;;;7.40;;
30533;SDS011;73248;52.398;9.814;2024-03-23T08:09:38;28.40;;;7.32;;
30533;SDS011;73248;52.398;9.814;2024-03-23T08:12:04;29.67;;;7.32;;
30533;SDS011;73248;52.398;9.814;2024-03-23T08:14:30;42.08;;;8.43;;
30533;SDS011;73248;52.398;9.814;2024-03-23T08:16:55;41.05;;;8.98;;
30533;SDS011;73248;52.398;9.814;2024-03-23T08:19:21;43.25;;;8.35;;
30533;SDS011;73248;52.398;9.814;2024-03-23T08:21:46;33.83;;;9.23;;
30533;SDS011;73248;52.398;9.814;2024-03-23T08:24:12;35.17;;;9.63;;
30533;SDS011;73248;52.398;9.814;2024-03-23T08:26:38;30.88;;;8.68;;
30533;SDS011;73248;52.398;9.814;2024-03-23T08:29:04;34.47;;;9.05;;
30533;SDS011;73248;52.398;9.814;2024-03-23T08:31:30;33.00;;;8.60;;
30533;SDS011;73248;52.398;9.814;2024-03-23T08:33:56;35.15;;;8.68;;
30533;SDS011;73248;52.398;9.814;2024-03-23T08:36:21;35.05;;;9.05;;
30533;SDS011;73248;52.398;9.814;2024-03-23T08:38:47;27.08;;;8.32;;
30533;SDS011;73248;52.398;9.814;2024-03-23T08:43:41;29.13;;;8.98;;
30533;SDS011;73248;52.398;9.814;2024-03-23T08:46:11;36.17;;;9.57;;
30533;SDS011;73248;52.398;9.814;2024-03-23T08:48:41;32.65;;;8.25;;
30533;SDS011;73248;52.398;9.814;2024-03-23T08:51:09;34.35;;;8.77;;
30533;SDS011;73248;52.398;9.814;2024-03-23T08:53:35;26.05;;;7.80;;
30533;SDS011;73248;52.398;9.814;2024-03-23T08:56:02;38.95;;;9.10;;
30533;SDS011;73248;52.398;9.814;2024-03-23T08:58:29;35.63;;;6.82;;
30533;SDS011;73248;52.398;9.814;2024-03-23T09:00:56;20.73;;;6.90;;
30533;SDS011;73248;52.398;9.814;2024-03-23T09:03:28;25.75;;;6.95;;
30533;SDS011;73248;52.398;9.814;2024-03-23T09:05:53;30.40;;;6.45;;
30533;SDS011;73248;52.398;9.814;2024-03-23T09:08:20;25.27;;;5.32;;
30533;SDS011;73248;52.398;9.814;2024-03-23T09:10:46;22.77;;;6.25;;
30533;SDS011;73248;52.398;9.814;2024-03-23T09:13:12;25.27;;;6.57;;
30533;SDS011;73248;52.398;9.814;2024-03-23T09:15:45;23.75;;;5.45;;
30533;SDS011;73248;52.398;9.814;2024-03-23T09:18:12;28.67;;;5.18;;
30533;SDS011;73248;52.398;9.814;2024-03-23T09:20:38;24.92;;;6.30;;
30533;SDS011;73248;52.398;9.814;2024-03-23T09:23:03;19.45;;;4.90;;
30533;SDS011;73248;52.398;9.814;2024-03-23T09:25:29;25.10;;;5.25;;
30533;SDS011;73248;52.398;9.814;2024-03-23T09:27:55;17.20;;;4.45;;
30533;SDS011;73248;52.398;9.814;2024-03-23T09:30:20;15.82;;;4.65;;
30533;SDS011;73248;52.398;9.814;2024-03-23T09:32:46;26.67;;;5.13;;
30533;SDS011;73248;52.398;9.814;2024-03-23T09:35:11;32.30;;;5.75;;
30533;SDS011;73248;52.398;9.814;2024-03-23T09:37:40;26.55;;;5.38;;
30533;SDS011;73248;52.398;9.814;2024-03-23T09:40:14;18.40;;;4.60;;
30533;SDS011;73248;52.398;9.814;2024-03-23T09:42:40;16.00;;;4.40;;
30533;SDS011;73248;52.398;9.814;2024-03-23T09:45:26;24.42;;;4.90;;
30533;SDS011;73248;52.398;9.814;2024-03-23T09:47:54;23.00;;;4.93;;
30533;SDS011;73248;52.398;9.814;2024-03-23T09:50:20;31.50;;;6.18;;
30533;SDS011;73248;52.398;9.814;2024-03-23T09:52:46;16.52;;;3.83;;
30533;SDS011;73248;52.398;9.814;2024-03-23T09:55:12;18.30;;;4.22;;
30533;SDS011;73248;52.398;9.814;2024-03-23T09:57:39;18.45;;;4.25;;
30533;SDS011;73248;52.398;9.814;2024-03-23T10:00:05;12.90;;;3.60;;
30533;SDS011;73248;52.398;9.814;2024-03-23T10:02:31;23.90;;;4.43;;
30533;SDS011;73248;52.398;9.814;2024-03-23T10:04:57;21.08;;;4.30;;
30533;SDS011;73248;52.398;9.814;2024-03-23T10:07:23;16.38;;;3.42;;
30533;SDS011;73248;52.398;9.814;2024-03-23T10:09:48;18.08;;;4.30;;
30533;SDS011;73248;52.398;9.814;2024-03-23T10:12:18;20.15;;;3.38;;
30533;SDS011;73248;52.398;9.814;2024-03-23T10:14:44;17.80;;;3.13;;
30533;SDS011;73248;52.398;9.814;2024-03-23T10:17:17;19.17;;;2.50;;
30533;SDS011;73248;52.398;9.814;2024-03-23T10:19:51;12.88;;;2.83;;
30533;SDS011;73248;52.398;9.814;2024-03-23T10:22:18;16.98;;;3.00;;
30533;SDS011;73248;52.398;9.814;2024-03-23T10:24:44;14.82;;;2.58;;
30533;SDS011;73248;52.398;9.814;2024-03-23T10:27:17;16.75;;;2.80;;
30533;SDS011;73248;52.398;9.814;2024-03-23T10:29:47;21.00;;;2.97;;
30533;SDS011;73248;52.398;9.814;2024-03-23T10:32:15;15.98;;;2.00;;
30533;SDS011;73248;52.398;9.814;2024-03-23T10:34:42;13.80;;;3.33;;
30533;SDS011;73248;52.398;9.814;2024-03-23T10:37:08;11.80;;;2.50;;
30533;SDS011;73248;52.398;9.814;2024-03-23T10:39:36;11.13;;;2.13;;
30533;SDS011;73248;52.398;9.814;2024-03-23T10:42:07;8.65;;;1.60;;
30533;SDS011;73248;52.398;9.814;2024-03-23T10:44:35;7.70;;;1.80;;
30533;SDS011;73248;52.398;9.814;2024-03-23T10:47:01;7.60;;;1.25;;
30533;SDS011;73248;52.398;9.814;2024-03-23T10:49:35;6.97;;;1.85;;
30533;SDS011;73248;52.398;9.814;2024-03-23T10:54:27;6.43;;;1.63;;
30533;SDS011;73248;52.398;9.814;2024-03-23T10:57:17;4.88;;;1.52;;
30533;SDS011;73248;52.398;9.814;2024-03-23T10:59:45;5.05;;;1.48;;
30533;SDS011;73248;52.398;9.814;2024-03-23T11:02:18;5.47;;;1.52;;
30533;SDS011;73248;52.398;9.814;2024-03-23T11:04:45;10.10;;;1.63;;
30533;SDS011;73248;52.398;9.814;2024-03-23T11:07:31;6.22;;;1.85;;
30533;SDS011;73248;52.398;9.814;2024-03-23T11:09:58;3.22;;;1.17;;
30533;SDS011;73248;52.398;9.814;2024-03-23T11:17:30;2.67;;;0.95;;
30533;SDS011;73248;52.398;9.814;2024-03-23T11:20:02;5.07;;;1.33;;
30533;SDS011;73248;52.398;9.814;2024-03-23T11:22:39;5.40;;;2.17;;
30533;SDS011;73248;52.398;9.814;2024-03-23T11:25:17;4.07;;;1.48;;
30533;SDS011;73248;52.398;9.814;2024-03-23T11:27:49;5.63;;;1.63;;
30533;SDS011;73248;52.398;9.814;2024-03-23T11:30:17;5.60;;;1.17;;
30533;SDS011;73248;52.398;9.814;2024-03-23T11:32:54;4.72;;;1.65;;
30533;SDS011;73248;52.398;9.814;2024-03-23T11:38:11;3.95;;;1.75;;
30533;SDS011;73248;52.398;9.814;2024-03-23T11:43:04;7.82;;;2.40;;
30533;SDS011;73248;52.398;9.814;2024-03-23T11:45:35;8.43;;;1.92;;
30533;SDS011;73248;52.398;9.814;2024-03-23T11:48:05;7.22;;;1.73;;
30533;SDS011;73248;52.398;9.814;2024-03-23T11:50:36;6.78;;;1.80;;
30533;SDS011;73248;52.398;9.814;2024-03-23T11:53:18;5.82;;;1.60;;
30533;SDS011;73248;52.398;9.814;2024-03-23T11:58:11;6.65;;;1.20;;
30533;SDS011;73248;52.398;9.814;2024-03-23T12:00:38;3.85;;;0.90;;
30533;SDS011;73248;52.398;9.814;2024-03-23T12:03:04;3.53;;;1.20;;
30533;SDS011;73248;52.398;9.814;2024-03-23T12:05:31;4.55;;;1.63;;
30533;SDS011;73248;52.398;9.814;2024-03-23T12:10:47;7.45;;;1.23;;
30533;SDS011;73248;52.398;9.814;2024-03-23T12:13:17;0.90;;;0.77;;
30533;SDS011;73248;52.398;9.814;2024-03-23T12:15:46;2.17;;;1.10;;
30533;SDS011;73248;52.398;9.814;2024-03-23T12:18:14;6.78;;;1.75;;
30533;SDS011;73248;52.398;9.814;2024-03-23T12:20:40;6.40;;;0.88;;
30533;SDS011;73248;52.398;9.814;2024-03-23T12:23:12;4.40;;;1.33;;
30533;SDS011;73248;52.398;9.814;2024-03-23T12:25:38;3.85;;;1.20;;
30533;SDS011;73248;52.398;9.814;2024-03-23T12:28:04;3.88;;;0.93;;
30533;SDS011;73248;52.398;9.814;2024-03-23T12:30:34;5.72;;;1.10;;
30533;SDS011;73248;52.398;9.814;2024-03-23T12:33:01;4.15;;;1.35;;
30533;SDS011;73248;52.398;9.814;2024-03-23T12:35:28;8.23;;;1.40;;
30533;SDS011;73248;52.398;9.814;2024-03-23T12:37:54;4.38;;;1.35;;
30533;SDS011;73248;52.398;9.814;2024-03-23T12:40:19;4.38;;;1.02;;
30533;SDS011;73248;52.398;9.814;2024-03-23T12:42:45;4.65;;;1.20;;
30533;SDS011;73248;52.398;9.814;2024-03-23T12:45:10;6.57;;;1.38;;
30533;SDS011;73248;52.398;9.814;2024-03-23T12:47:36;5.18;;;1.20;;
30533;SDS011;73248;52.398;9.814;2024-03-23T12:50:01;4.13;;;1.35;;
30533;SDS011;73248;52.398;9.814;2024-03-23T12:52:28;7.75;;;1.38;;
30533;SDS011;73248;52.398;9.814;2024-03-23T12:54:57;6.30;;;1.50;;
30533;SDS011;73248;52.398;9.814;2024-03-23T12:57:26;3.22;;;0.82;;
30533;SDS011;73248;52.398;9.814;2024-03-23T12:59:52;1.35;;;0.55;;
30533;SDS011;73248;52.398;9.814;2024-03-23T13:02:18;7.75;;;1.02;;
30533;SDS011;73248;52.398;9.814;2024-03-23T13:04:50;3.88;;;0.80;;
30533;SDS011;73248;52.398;9.814;2024-03-23T13:07:20;1.55;;;0.70;;
30533;SDS011;73248;52.398;9.814;2024-03-23T13:09:46;2.50;;;0.50;;
30533;SDS011;73248;52.398;9.814;2024-03-23T13:14:40;3.28;;;0.90;;
30533;SDS011;73248;52.398;9.814;2024-03-23T13:17:06;4.60;;;1.00;;
30533;SDS011;73248;52.398;9.814;2024-03-23T13:19:32;4.25;;;0.95;;
30533;SDS011;73248;52.398;9.814;2024-03-23T13:21:59;4.05;;;1.20;;
30533;SDS011;73248;52.398;9.814;2024-03-23T13:24:25;7.72;;;1.30;;
30533;SDS011;73248;52.398;9.814;2024-03-23T13:26:51;4.72;;;1.38;;
30533;SDS011;73248;52.398;9.814;2024-03-23T13:29:18;3.53;;;1.10;;
30533;SDS011;73248;52.398;9.814;2024-03-23T13:31:44;5.47;;;1.08;;
30533;SDS011;73248;52.398;9.814;2024-03-23T13:34:13;2.15;;;1.10;;
30533;SDS011;73248;52.398;9.814;2024-03-23T13:36:40;3.95;;;1.00;;
30533;SDS011;73248;52.398;9.814;2024-03-23T13:39:06;4.03;;;1.52;;
30533;SDS011;73248;52.398;9.814;2024-03-23T13:41:42;4.38;;;1.17;;
30533;SDS011;73248;52.398;9.814;2024-03-23T13:44:11;4.35;;;1.00;;
30533;SDS011;73248;52.398;9.814;2024-03-23T13:46:39;4.07;;;1.33;;
30533;SDS011;73248;52.398;9.814;2024-03-23T13:49:05;4.13;;;1.00;;
30533;SDS011;73248;52.398;9.814;2024-03-23T13:51:31;2.38;;;1.00;;
30533;SDS011;73248;52.398;9.814;2024-03-23T13:53:57;2.92;;;1.10;;
30533;SDS011;73248;52.398;9.814;2024-03-23T13:56:26;3.97;;;1.23;;
30533;SDS011;73248;52.398;9.814;2024-03-23T13:58:54;4.40;;;1.08;;
30533;SDS011;73248;52.398;9.814;2024-03-23T14:01:23;5.07;;;1.20;;
30533;SDS011;73248;52.398;9.814;2024-03-23T14:03:49;2.92;;;0.98;;
30533;SDS011;73248;52.398;9.814;2024-03-23T14:06:15;3.40;;;1.13;;
30533;SDS011;73248;52.398;9.814;2024-03-23T14:08:41;3.50;;;1.85;;
30533;SDS011;73248;52.398;9.814;2024-03-23T14:11:08;3.53;;;0.90;;
30533;SDS011;73248;52.398;9.814;2024-03-23T14:13:34;2.70;;;0.90;;
30533;SDS011;73248;52.398;9.814;2024-03-23T14:16:00;8.27;;;1.40;;
30533;SDS011;73248;52.398;9.814;2024-03-23T14:18:26;7.60;;;1.15;;
30533;SDS011;73248;52.398;9.814;2024-03-23T14:20:52;2.58;;;1.10;;
30533;SDS011;73248;52.398;9.814;2024-03-23T14:23:23;1.75;;;0.98;;
30533;SDS011;73248;52.398;9.814;2024-03-23T14:25:55;3.35;;;0.82;;
30533;SDS011;73248;52.398;9.814;2024-03-23T14:28:21;4.78;;;1.05;;
30533;SDS011;73248;52.398;9.814;2024-03-23T14:30:48;4.28;;;0.90;;
30533;SDS011;73248;52.398;9.814;2024-03-23T14:33:14;6.68;;;1.25;;
30533;SDS011;73248;52.398;9.814;2024-03-23T14:35:40;7.32;;;1.30;;
30533;SDS011;73248;52.398;9.814;2024-03-23T14:38:06;3.80;;;1.30;;
30533;SDS011;73248;52.398;9.814;2024-03-23T14:40:32;6.95;;;1.58;;
30533;SDS011;73248;52.398;9.814;2024-03-23T14:42:58;2.47;;;0.90;;
30533;SDS011;73248;52.398;9.814;2024-03-23T14:45:23;5.30;;;1.00;;
30533;SDS011;73248;52.398;9.814;2024-03-23T14:47:52;1.30;;;0.60;;
30533;SDS011;73248;52.398;9.814;2024-03-23T14:50:18;3.33;;;0.45;;
30533;SDS011;73248;52.398;9.814;2024-03-23T14:52:44;0.93;;;0.40;;
30533;SDS011;73248;52.398;9.814;2024-03-23T14:55:11;1.40;;;0.38;;
30533;SDS011;73248;52.398;9.814;2024-03-23T14:57:40;2.05;;;0.25;;
30533;SDS011;73248;52.398;9.814;2024-03-23T15:00:08;1.13;;;0.30;;
30533;SDS011;73248;52.398;9.814;2024-03-23T15:02:38;0.75;;;0.52;;
30533;SDS011;73248;52.398;9.814;2024-03-23T15:05:04;1.17;;;0.20;;
30533;SDS011;73248;52.398;9.814;2024-03-23T15:07:32;4.85;;;0.68;;
30533;SDS011;73248;52.398;9.814;2024-03-23T15:09:58;0.82;;;0.50;;
30533;SDS011;73248;52.398;9.814;2024-03-23T15:12:23;1.70;;;0.38;;
30533;SDS011;73248;52.398;9.814;2024-03-23T15:14:49;1.15;;;0.40;;
30533;SDS011;73248;52.398;9.814;2024-03-23T15:17:15;3.28;;;0.63;;
30533;SDS011;73248;52.398;9.814;2024-03-23T15:19:40;3.10;;;0.55;;
30533;SDS011;73248;52.398;9.814;2024-03-23T15:22:07;1.80;;;0.60;;
30533;SDS011;73248;52.398;9.814;2024-03-23T15:24:33;3.63;;;0.57;;
30533;SDS011;73248;52.398;9.814;2024-03-23T15:27:00;1.65;;;0.32;;
30533;SDS011;73248;52.398;9.814;2024-03-23T15:29:26;1.40;;;0.50;;
30533;SDS011;73248;52.398;9.814;2024-03-23T15:31:51;1.40;;;0.75;;
30533;SDS011;73248;52.398;9.814;2024-03-23T15:34:18;1.35;;;0.43;;
30533;SDS011;73248;52.398;9.814;2024-03-23T15:36:46;3.97;;;0.57;;
30533;SDS011;73248;52.398;9.814;2024-03-23T15:39:16;6.80;;;0.77;;
30533;SDS011;73248;52.398;9.814;2024-03-23T15:41:45;1.33;;;0.50;;
30533;SDS011;73248;52.398;9.814;2024-03-23T15:44:10;3.95;;;0.60;;
30533;SDS011;73248;52.398;9.814;2024-03-23T15:46:36;1.23;;;0.57;;
30533;SDS011;73248;52.398;9.814;2024-03-23T15:49:02;3.22;;;0.95;;
30533;SDS011;73248;52.398;9.814;2024-03-23T15:51:27;6.13;;;1.00;;
30533;SDS011;73248;52.398;9.814;2024-03-23T15:53:57;4.35;;;1.13;;
30533;SDS011;73248;52.398;9.814;2024-03-23T15:56:23;8.95;;;1.13;;